Time;durP1;ratioP1;P1;durP2;ratioP2;P2;SDS_P1;SDS_P2;PMS_P1;PMS_P2;Temp;Humidity;BMP_temperature;BMP_pressure;BME280_temperature;BME280_humidity;BME280_pressure;Samples;Min_cycle;Max_cycle;Signal;HPM_P1;HPM_P2
2023/11/05 00:00:55;;;;;;;7.10;2.60;;;;;;;15.56;92.30;96936.87;107467;1254;67873;-37
2023/11/05 00:03:23;;;;;;;7.10;2.30;;;;;;;15.58;92.09;96941.34;107499;1254;72707;-37
2023/11/05 00:05:51;;;;;;;4.90;1.70;;;;;;;15.56;91.95;96949.31;107485;1254;60491;-37
2023/11/05 00:08:19;;;;;;;3.00;1.10;;;;;;;15.40;88.03;96961.91;107500;1254;60535;-37
2023/11/05 00:10:46;;;;;;;0.70;0.40;;;;;;;15.16;82.65;96958.54;107482;1253;73869;-37
2023/11/05 00:13:14;;;;;;;1.10;0.60;;;;;;;14.84;81.02;96967.44;107491;1259;66286;-37
2023/11/05 00:15:42;;;;;;;3.60;0.50;;;;;;;14.51;80.85;96972.45;107457;1258;71480;-37
2023/11/05 00:18:10;;;;;;;0.90;0.40;;;;;;;14.24;81.07;96966.97;107442;1254;61771;-37
2023/11/05 00:20:37;;;;;;;2.00;0.20;;;;;;;14.03;80.09;96977.88;107474;1254;60064;-37
2023/11/05 00:23:06;;;;;;;0.30;0.10;;;;;;;13.81;80.28;96966.86;107470;1254;72845;-37
2023/11/05 00:25:35;;;;;;;1.80;0.20;;;;;;;13.55;79.61;96989.68;107436;1254;66495;-37
2023/11/05 00:28:04;;;;;;;1.50;0.30;;;;;;;13.17;79.62;96996.58;107504;1257;72642;-38
2023/11/05 00:30:31;;;;;;;0.30;0.20;;;;;;;12.89;81.15;96986.87;107489;1255;61085;-37
2023/11/05 00:32:59;;;;;;;1.60;0.30;;;;;;;12.78;81.79;96973.20;107490;1254;60264;-37
2023/11/05 00:35:27;;;;;;;1.40;0.40;;;;;;;12.59;81.67;97012.79;107625;1254;73873;-37
2023/11/05 00:37:54;;;;;;;9.90;0.30;;;;;;;12.29;82.70;97035.00;107486;1254;67578;-37
2023/11/05 00:40:22;;;;;;;1.30;0.30;;;;;;;12.06;83.93;97035.56;107485;1254;71827;-37
2023/11/05 00:42:50;;;;;;;2.70;0.30;;;;;;;11.98;84.68;97039.88;107430;1253;61672;-37
2023/11/05 00:45:17;;;;;;;0.80;0.20;;;;;;;11.90;84.57;97047.38;107367;1253;60890;-37
2023/11/05 00:47:45;;;;;;;0.80;0.30;;;;;;;11.70;85.14;97049.05;107425;1254;73873;-37
2023/11/05 00:50:12;;;;;;;0.90;0.40;;;;;;;11.53;85.73;97047.71;107302;1254;67613;-37
2023/11/05 00:52:40;;;;;;;2.90;0.40;;;;;;;11.42;86.50;97055.23;107359;1253;72720;-37
2023/11/05 00:55:08;;;;;;;0.30;0.20;;;;;;;11.35;87.12;97076.17;107381;1254;61685;-37
2023/11/05 00:57:36;;;;;;;1.10;0.20;;;;;;;11.20;87.82;97097.72;107398;1253;60393;-37
2023/11/05 01:00:05;;;;;;;0.50;0.20;;;;;;;11.07;88.67;97107.43;107495;1254;73830;-37
2023/11/05 01:02:49;;;;;;;0.60;0.30;;;;;;;11.00;89.46;97116.31;107412;1254;67664;-37
2023/11/05 01:05:17;;;;;;;4.80;0.40;;;;;;;10.95;89.99;97123.06;107438;1254;72714;-37
2023/11/05 01:07:45;;;;;;;0.70;0.10;;;;;;;10.84;90.73;97129.22;107421;1253;60760;-37
2023/11/05 01:10:12;;;;;;;0.60;0.30;;;;;;;10.73;91.47;97123.54;107506;1254;60822;-37
2023/11/05 01:12:40;;;;;;;0.50;0.40;;;;;;;10.69;92.26;97112.30;107502;1254;73911;-37
2023/11/05 01:15:08;;;;;;;0.40;0.30;;;;;;;10.68;92.61;97098.77;107418;1253;67692;-37
2023/11/05 01:17:36;;;;;;;0.20;0.20;;;;;;;10.66;93.07;97088.11;107490;1254;72663;-37
2023/11/05 01:20:06;;;;;;;0.20;0.20;;;;;;;10.62;93.61;97090.06;107487;1254;60300;-37
2023/11/05 01:22:34;;;;;;;0.60;0.30;;;;;;;10.57;93.95;97090.30;107548;1253;60453;-37
2023/11/05 01:25:02;;;;;;;0.60;0.20;;;;;;;10.58;93.85;97095.70;107512;1254;74355;-37
2023/11/05 01:27:30;;;;;;;0.80;0.10;;;;;;;10.58;93.81;97116.05;107494;1254;66424;-38
2023/11/05 01:29:57;;;;;;;0.10;0.10;;;;;;;10.55;93.82;97140.73;107500;1253;72777;-37
2023/11/05 01:32:25;;;;;;;0.40;0.20;;;;;;;10.50;94.08;97132.30;107454;1253;61719;-37
2023/11/05 01:34:53;;;;;;;3.10;0.30;;;;;;;10.53;93.96;97126.66;107492;1253;60038;-37
2023/11/05 01:37:20;;;;;;;1.20;0.40;;;;;;;10.60;93.91;97125.23;107497;1254;73831;-37
2023/11/05 01:39:48;;;;;;;0.50;0.30;;;;;;;10.62;93.74;97122.80;107466;1252;66918;-37
2023/11/05 01:42:15;;;;;;;0.90;0.40;;;;;;;10.59;93.77;97135.16;107472;1254;72635;-37
2023/11/05 01:44:43;;;;;;;1.00;0.30;;;;;;;10.63;93.57;97138.50;107473;1254;59969;-37
2023/11/05 01:47:11;;;;;;;2.70;0.60;;;;;;;10.68;92.92;97134.23;107482;1258;60166;-37
2023/11/05 01:49:38;;;;;;;0.30;0.20;;;;;;;10.65;92.64;97130.95;107502;1254;73899;-37
2023/11/05 01:52:07;;;;;;;1.00;0.20;;;;;;;10.59;92.74;97126.96;107369;1254;66655;-37
2023/11/05 01:54:35;;;;;;;0.10;0.10;;;;;;;10.57;92.92;97129.31;107416;1254;71404;-37
2023/11/05 01:57:04;;;;;;;0.20;0.20;;;;;;;10.62;92.72;97142.08;107459;1258;60767;-37
2023/11/05 01:59:32;;;;;;;1.50;0.40;;;;;;;10.66;92.58;97163.98;107416;1259;60377;-37
2023/11/05 02:02:01;;;;;;;1.00;0.30;;;;;;;10.64;92.49;97164.41;107555;1253;72981;-37
2023/11/05 02:04:29;;;;;;;1.10;0.30;;;;;;;10.62;92.66;97165.06;107375;1254;67626;-38
2023/11/05 02:06:56;;;;;;;1.10;0.20;;;;;;;10.63;92.33;97170.55;107374;1254;72749;-37
2023/11/05 02:09:24;;;;;;;0.60;0.30;;;;;;;10.62;92.05;97180.70;107444;1254;59691;-37
2023/11/05 02:11:52;;;;;;;1.80;0.30;;;;;;;10.58;92.47;97189.28;107395;1254;60389;-37
2023/11/05 02:14:20;;;;;;;0.40;0.30;;;;;;;10.52;92.61;97190.70;107441;1253;72678;-37
2023/11/05 02:16:47;;;;;;;0.30;0.20;;;;;;;10.52;92.83;97196.42;107556;1254;65833;-38
2023/11/05 02:19:15;;;;;;;0.20;0.20;;;;;;;10.53;92.70;97204.16;107503;1254;72683;-38
2023/11/05 02:21:46;;;;;;;0.70;0.30;;;;;;;10.49;92.74;97212.11;107500;1254;60462;-38
2023/11/05 02:24:13;;;;;;;0.30;0.20;;;;;;;10.44;92.70;97226.73;107520;1254;60850;-38
2023/11/05 02:26:41;;;;;;;0.20;0.20;;;;;;;10.42;92.68;97238.14;107381;1254;73834;-37
2023/11/05 02:29:08;;;;;;;2.10;0.30;;;;;;;10.43;92.65;97240.60;107399;1254;66427;-37
2023/11/05 02:31:36;;;;;;;1.20;0.40;;;;;;;10.40;92.87;97241.87;107382;1259;72692;-37
2023/11/05 02:34:04;;;;;;;0.30;0.30;;;;;;;10.36;93.06;97247.38;107537;1254;61709;-37
2023/11/05 02:36:32;;;;;;;0.20;0.20;;;;;;;10.36;93.02;97256.73;107508;1254;60418;-37
2023/11/05 02:38:59;;;;;;;1.60;0.20;;;;;;;10.38;92.85;97267.14;107488;1254;72671;-38
2023/11/05 02:41:27;;;;;;;2.30;0.40;;;;;;;10.34;92.88;97285.16;107424;1254;67694;-37
2023/11/05 02:43:55;;;;;;;0.70;0.30;;;;;;;10.27;93.14;97303.05;107496;1252;72716;-38
2023/11/05 02:46:22;;;;;;;0.30;0.20;;;;;;;10.25;93.11;97320.55;107545;1253;60405;-37
2023/11/05 02:48:50;;;;;;;0.20;0.10;;;;;;;10.25;93.24;97332.80;107503;1254;60508;-37
2023/11/05 02:51:18;;;;;;;2.80;0.30;;;;;;;10.21;93.53;97346.83;107509;1254;73837;-38
2023/11/05 02:53:45;;;;;;;1.30;0.30;;;;;;;10.12;93.99;97356.43;107493;1253;68231;-38
2023/11/05 02:56:13;;;;;;;0.40;0.20;;;;;;;10.08;94.31;97368.08;107471;1254;71379;-37
2023/11/05 02:58:42;;;;;;;0.40;0.20;;;;;;;10.06;94.59;97375.46;107481;1254;60432;-37
2023/11/05 03:01:10;;;;;;;0.40;0.40;;;;;;;10.03;94.90;97384.36;107538;1254;60533;-37
2023/11/05 03:03:38;;;;;;;0.30;0.30;;;;;;;9.96;95.42;97390.86;107391;1254;73876;-37
2023/11/05 03:06:06;;;;;;;1.50;0.50;;;;;;;9.90;95.77;97392.94;107343;1259;67639;-37
2023/11/05 03:08:34;;;;;;;1.10;0.40;;;;;;;9.90;95.84;97406.02;107353;1253;72686;-37
2023/11/05 03:11:01;;;;;;;0.70;0.40;;;;;;;9.91;95.88;97415.80;107390;1254;60424;-37
2023/11/05 03:13:29;;;;;;;0.60;0.60;;;;;;;9.91;95.88;97427.59;107407;1254;60488;-37
2023/11/05 03:15:57;;;;;;;1.60;0.80;;;;;;;9.86;96.06;97435.67;107471;1254;72560;-37
2023/11/05 03:18:24;;;;;;;1.20;0.70;;;;;;;9.84;96.17;97436.99;107549;1254;66651;-37
2023/11/05 03:20:52;;;;;;;0.70;0.50;;;;;;;9.84;95.83;97443.10;107338;1254;73159;-37
2023/11/05 03:23:20;;;;;;;1.20;0.50;;;;;;;9.85;95.84;97448.98;107419;1254;59826;-37
2023/11/05 03:25:48;;;;;;;0.70;0.70;;;;;;;9.85;95.72;97456.94;107486;1254;60456;-37
2023/11/05 03:28:16;;;;;;;1.90;0.80;;;;;;;9.83;96.00;97461.59;107461;1254;73841;-37
2023/11/05 03:30:45;;;;;;;2.00;0.60;;;;;;;9.81;95.92;97462.32;107604;1253;68029;-37
2023/11/05 03:33:13;;;;;;;2.00;0.40;;;;;;;9.84;95.70;97465.67;107476;1254;72683;-37
2023/11/05 03:35:41;;;;;;;1.30;0.60;;;;;;;9.85;95.51;97466.91;107407;1257;61728;-37
2023/11/05 03:38:08;;;;;;;1.30;0.60;;;;;;;9.86;95.41;97462.58;107441;1254;60434;-37
2023/11/05 03:40:36;;;;;;;0.70;0.50;;;;;;;9.83;95.25;97457.51;107401;1254;74447;-37
2023/11/05 03:43:03;;;;;;;1.40;0.80;;;;;;;9.81;95.21;97458.91;107397;1254;67158;-37
2023/11/05 03:45:31;;;;;;;0.70;0.50;;;;;;;9.83;95.25;97465.23;107375;1254;72679;-36
2023/11/05 03:47:59;;;;;;;1.80;0.60;;;;;;;9.84;94.80;97467.38;107556;1254;60412;-37
2023/11/05 03:50:27;;;;;;;1.50;0.60;;;;;;;9.82;95.09;97476.67;107555;1254;60396;-37
2023/11/05 03:52:56;;;;;;;0.80;0.50;;;;;;;9.81;95.32;97486.83;107480;1254;74124;-37
2023/11/05 03:55:24;;;;;;;3.00;0.30;;;;;;;9.85;95.24;97492.50;107524;1254;66298;-37
2023/11/05 03:57:51;;;;;;;1.40;0.90;;;;;;;9.90;94.86;97486.59;107500;1254;72668;-37
2023/11/05 04:00:20;;;;;;;1.80;0.50;;;;;;;9.93;94.62;97480.84;107481;1254;60501;-37
2023/11/05 04:02:47;;;;;;;0.90;0.70;;;;;;;9.93;94.55;97486.17;107615;1254;60276;-37
2023/11/05 04:05:15;;;;;;;2.40;0.70;;;;;;;9.90;94.30;97497.57;107541;1254;73851;-37
2023/11/05 04:07:43;;;;;;;1.60;0.70;;;;;;;9.89;93.98;97517.06;107553;1254;67581;-37
2023/11/05 04:10:11;;;;;;;1.30;0.60;;;;;;;9.89;93.73;97524.80;107586;1254;71395;-37
2023/11/05 04:12:38;;;;;;;2.20;0.70;;;;;;;9.88;93.68;97528.42;107424;1254;60373;-37
2023/11/05 04:15:07;;;;;;;1.00;0.50;;;;;;;9.85;93.97;97538.28;107369;1254;60428;-37
2023/11/05 04:17:34;;;;;;;1.70;0.80;;;;;;;9.81;94.07;97548.77;107386;1258;73924;-37
2023/11/05 04:20:04;;;;;;;1.50;0.70;;;;;;;9.83;93.93;97555.70;107567;1253;67097;-37
2023/11/05 04:22:33;;;;;;;2.20;0.70;;;;;;;9.85;93.67;97569.98;107480;1254;72700;-37
2023/11/05 04:25:01;;;;;;;2.20;0.80;;;;;;;9.83;93.57;97583.22;107504;1254;60404;-37
2023/11/05 04:27:29;;;;;;;2.90;0.70;;;;;;;9.79;93.83;97598.24;107434;1254;60098;-37
2023/11/05 04:29:56;;;;;;;2.90;0.60;;;;;;;9.80;93.81;97600.56;107422;1259;73872;-37
2023/11/05 04:32:24;;;;;;;1.00;0.60;;;;;;;9.83;93.65;97595.28;107377;1254;68016;-37
2023/11/05 04:34:52;;;;;;;1.40;0.90;;;;;;;9.84;93.68;97590.87;107401;1254;72709;-37
2023/11/05 04:37:20;;;;;;;0.60;0.50;;;;;;;9.80;93.50;97581.48;107438;1254;60352;-37
2023/11/05 04:39:48;;;;;;;1.70;0.80;;;;;;;9.78;93.37;97581.17;107370;1259;217150;-37
2023/11/05 04:44:26;;;;;;;1.20;0.80;;;;;;;9.84;92.74;97578.81;104380;1289;600273;-37
2023/11/05 04:46:53;;;;;;;1.20;0.70;;;;;;;9.80;92.52;97590.42;106754;1263;59277;-36
2023/11/05 04:49:21;;;;;;;1.30;0.90;;;;;;;9.78;92.63;97596.64;106819;1263;60045;-37
2023/11/05 04:51:48;;;;;;;1.20;0.90;;;;;;;9.79;92.24;97594.30;106771;1263;72221;-36
2023/11/05 04:54:16;;;;;;;1.40;0.60;;;;;;;9.80;91.69;97603.58;106770;1263;67562;-36
2023/11/05 04:56:43;;;;;;;1.40;0.50;;;;;;;9.79;91.65;97611.47;106768;1263;71405;-36
2023/11/05 04:59:11;;;;;;;0.90;0.50;;;;;;;9.75;91.63;97621.40;106785;1263;193383;-36
2023/11/05 05:01:39;;;;;;;0.90;0.60;;;;;;;9.70;91.65;97620.58;107001;1259;59257;-37
2023/11/05 05:04:08;;;;;;;0.70;0.50;;;;;;;9.70;91.53;97621.11;107016;1258;72271;-36
2023/11/05 05:06:36;;;;;;;1.20;0.60;;;;;;;9.68;91.50;97617.81;107101;1260;67731;-36
2023/11/05 05:09:04;;;;;;;2.90;0.60;;;;;;;9.62;91.82;97617.15;107026;1258;71473;-36
2023/11/05 05:11:32;;;;;;;1.40;0.70;;;;;;;9.55;92.09;97622.28;107157;1260;61708;-37
2023/11/05 05:14:00;;;;;;;1.90;1.10;;;;;;;9.52;92.00;97623.92;107103;1259;60017;-37
2023/11/05 05:16:29;;;;;;;5.70;1.90;;;;;;;9.53;92.05;97637.76;107187;1257;71745;-37
2023/11/05 05:18:57;;;;;;;3.80;2.70;;;;;;;9.50;92.06;97638.30;107211;1257;67557;-37
2023/11/05 05:21:24;;;;;;;5.70;3.00;;;;;;;9.44;92.38;97638.72;107059;1257;72726;-37
2023/11/05 05:23:52;;;;;;;4.00;2.70;;;;;;;9.42;92.63;97637.96;107206;1260;60054;-37
2023/11/05 05:26:20;;;;;;;4.10;2.00;;;;;;;9.45;92.51;97647.30;107037;1260;59472;-37
2023/11/05 05:28:48;;;;;;;5.10;2.20;;;;;;;9.48;92.14;97646.44;107199;1258;73080;-37
2023/11/05 05:31:15;;;;;;;4.90;2.30;;;;;;;9.44;92.35;97648.91;107122;1258;67578;-37
2023/11/05 05:33:43;;;;;;;4.40;1.80;;;;;;;9.39;92.39;97655.66;107185;1258;72673;-37
2023/11/05 05:36:12;;;;;;;2.10;1.40;;;;;;;9.38;92.29;97663.71;106993;1258;60388;-37
2023/11/05 05:38:40;;;;;;;2.30;1.30;;;;;;;9.39;92.08;97669.56;107206;1258;60019;-37
2023/11/05 05:41:08;;;;;;;1.70;1.10;;;;;;;9.36;92.30;97675.77;107064;1260;73077;-37
2023/11/05 05:43:36;;;;;;;3.50;1.10;;;;;;;9.32;92.58;97685.05;107050;1258;67580;-37
2023/11/05 05:46:04;;;;;;;2.00;0.90;;;;;;;9.31;92.69;97698.49;107029;1258;72711;-36
2023/11/05 05:48:32;;;;;;;4.50;0.90;;;;;;;9.34;92.61;97710.94;107024;1260;60445;-37
2023/11/05 05:51:00;;;;;;;6.90;0.90;;;;;;;9.37;92.48;97715.86;106985;1257;60095;-38
2023/11/05 05:53:28;;;;;;;2.20;1.10;;;;;;;9.31;92.60;97720.97;107648;1250;72835;-37
2023/11/05 05:55:55;;;;;;;3.40;0.90;;;;;;;9.28;93.08;97730.11;107633;1250;67794;-37
2023/11/05 05:58:23;;;;;;;3.20;0.90;;;;;;;9.28;93.01;97734.67;107607;1250;70401;-37
2023/11/05 06:00:50;;;;;;;3.40;0.90;;;;;;;9.31;93.07;97739.05;107652;1250;61749;-37
2023/11/05 06:03:18;;;;;;;2.30;0.80;;;;;;;9.31;93.38;97744.15;107722;1250;60270;-37
2023/11/05 06:05:47;;;;;;;2.90;1.10;;;;;;;9.28;93.70;97746.95;107644;1250;73502;-37
2023/11/05 06:08:15;;;;;;;3.10;0.90;;;;;;;9.26;94.03;97755.36;107697;1250;67647;-37
2023/11/05 06:10:42;;;;;;;1.70;0.90;;;;;;;9.28;93.98;97762.16;107610;1251;71466;-37
2023/11/05 06:13:10;;;;;;;1.90;0.80;;;;;;;9.32;94.07;97773.05;107614;1250;61732;-37
2023/11/05 06:15:38;;;;;;;1.50;1.00;;;;;;;9.34;94.22;97774.08;107712;1250;60485;-37
2023/11/05 06:18:06;;;;;;;3.70;1.10;;;;;;;9.33;94.55;97778.86;107699;1251;72530;-37
2023/11/05 06:20:34;;;;;;;2.30;0.90;;;;;;;9.32;94.78;97785.18;107706;1250;67614;-37
2023/11/05 06:23:01;;;;;;;2.40;1.10;;;;;;;9.36;94.72;97792.05;107661;1251;72648;-37
2023/11/05 06:25:29;;;;;;;1.60;1.20;;;;;;;9.39;94.68;97803.73;107674;1252;60391;-37
2023/11/05 06:27:57;;;;;;;3.50;1.30;;;;;;;9.41;94.90;97808.58;107655;1251;60021;-37
2023/11/05 06:30:24;;;;;;;2.40;1.20;;;;;;;9.41;95.36;97811.98;107582;1253;71777;-37
2023/11/05 06:32:52;;;;;;;1.00;0.80;;;;;;;9.43;95.75;97809.74;107599;1251;66549;-37
2023/11/05 06:35:19;;;;;;;4.40;1.40;;;;;;;9.50;95.66;97809.50;107620;1253;71949;-37
2023/11/05 06:37:47;;;;;;;2.90;1.30;;;;;;;9.55;95.40;97816.98;107617;1257;60456;-37
2023/11/05 06:40:15;;;;;;;3.40;1.10;;;;;;;9.57;94.95;97818.23;107668;1253;60089;-37
2023/11/05 06:42:42;;;;;;;2.10;1.30;;;;;;;9.56;95.03;97819.69;107612;1252;73548;-37
2023/11/05 06:45:10;;;;;;;4.50;1.30;;;;;;;9.55;95.43;97827.18;107567;1253;67955;-37
2023/11/05 06:47:38;;;;;;;2.50;1.10;;;;;;;9.60;95.37;97829.42;107586;1253;72247;-37
2023/11/05 06:50:06;;;;;;;2.30;1.40;;;;;;;9.68;95.43;97830.73;107572;1256;61702;-37
2023/11/05 06:52:34;;;;;;;2.40;1.40;;;;;;;9.76;95.45;97835.42;107569;1251;59718;-37
2023/11/05 06:55:06;;;;;;;2.70;1.40;;;;;;;9.79;95.57;97830.84;107631;1253;73059;-37
2023/11/05 06:57:36;;;;;;;3.50;1.90;;;;;;;9.81;95.41;97831.84;107692;1256;68436;-38
2023/11/05 07:00:06;;;;;;;3.00;1.60;;;;;;;9.86;95.11;97836.62;107614;1255;72696;-37
2023/11/05 07:02:35;;;;;;;4.30;1.60;;;;;;;9.94;94.80;97837.98;107573;1253;61708;-37
2023/11/05 07:05:04;;;;;;;2.60;1.50;;;;;;;10.02;94.79;97840.21;107640;1251;60103;-37
2023/11/05 07:07:33;;;;;;;3.60;1.80;;;;;;;10.06;94.76;97833.94;107696;1257;73040;-37
2023/11/05 07:10:04;;;;;;;2.20;1.50;;;;;;;10.07;94.38;97827.82;107639;1253;67582;-37
2023/11/05 07:12:32;;;;;;;3.00;1.30;;;;;;;10.14;93.78;97828.95;107702;1253;72664;-37
2023/11/05 07:15:01;;;;;;;3.50;1.40;;;;;;;10.23;93.40;97825.69;107691;1253;61696;-37
2023/11/05 07:17:30;;;;;;;2.80;1.40;;;;;;;10.31;93.05;97818.30;107618;1253;60001;-37
2023/11/05 07:19:59;;;;;;;3.60;1.60;;;;;;;10.35;92.72;97817.36;107633;1252;71761;-37
2023/11/05 07:22:26;;;;;;;1.80;1.40;;;;;;;10.39;92.40;97821.36;107588;1251;66632;-37
2023/11/05 07:24:54;;;;;;;4.40;1.40;;;;;;;10.47;91.41;97827.20;107595;1257;72775;-36
2023/11/05 07:27:22;;;;;;;3.60;1.20;;;;;;;10.55;90.88;97828.38;107613;1253;61864;-37
2023/11/05 07:29:50;;;;;;;2.90;1.30;;;;;;;10.59;90.32;97825.80;107653;1253;60015;-37
2023/11/05 07:32:17;;;;;;;2.60;1.30;;;;;;;10.61;89.70;97822.54;107637;1253;73046;-37
2023/11/05 07:34:45;;;;;;;2.80;1.70;;;;;;;10.64;89.84;97827.25;107537;1252;67894;-36
2023/11/05 07:37:13;;;;;;;1.60;0.90;;;;;;;10.74;89.43;97824.86;107617;1251;72674;-37
2023/11/05 07:39:42;;;;;;;1.60;0.90;;;;;;;10.86;88.74;97821.45;107562;1253;61671;-36
2023/11/05 07:42:10;;;;;;;2.00;1.00;;;;;;;10.93;88.44;97824.42;107551;1251;60084;-37
2023/11/05 07:44:38;;;;;;;3.60;0.90;;;;;;;10.98;88.03;97830.82;107561;1252;71830;-36
2023/11/05 07:47:06;;;;;;;1.60;0.80;;;;;;;11.03;87.05;97829.30;107577;1253;66340;-37
2023/11/05 07:49:33;;;;;;;2.50;1.00;;;;;;;11.13;86.45;97836.13;107574;1251;72651;-36
2023/11/05 07:52:01;;;;;;;1.00;0.70;;;;;;;11.20;86.53;97840.17;107607;1252;59605;-37
2023/11/05 07:54:28;;;;;;;2.10;1.20;;;;;;;11.24;86.53;97840.61;107631;1253;59475;-37
2023/11/05 07:56:58;;;;;;;1.80;1.00;;;;;;;11.28;85.72;97843.21;107693;1251;73043;-37
2023/11/05 07:59:26;;;;;;;2.60;1.00;;;;;;;11.37;85.48;97839.58;107587;1253;65702;-36
2023/11/05 08:01:54;;;;;;;2.20;0.90;;;;;;;11.48;84.96;97829.92;107609;1251;72674;-36
2023/11/05 08:04:22;;;;;;;1.20;0.90;;;;;;;11.53;84.55;97817.39;107619;1251;60932;-36
2023/11/05 08:06:50;;;;;;;2.50;1.00;;;;;;;11.58;84.26;97817.36;107629;1252;60061;-37
2023/11/05 08:09:21;;;;;;;2.70;1.00;;;;;;;11.65;82.90;97831.92;107627;1251;70883;-36
2023/11/05 08:11:49;;;;;;;2.40;1.10;;;;;;;11.77;82.93;97833.23;107682;1252;67598;-37
2023/11/05 08:14:17;;;;;;;1.40;0.90;;;;;;;11.86;82.68;97839.58;107685;1253;72710;-36
2023/11/05 08:16:45;;;;;;;1.50;1.00;;;;;;;11.90;82.03;97836.75;107613;1251;60151;-37
2023/11/05 08:19:13;;;;;;;2.60;1.00;;;;;;;11.94;81.30;97836.40;107645;1253;60064;-37
2023/11/05 08:21:41;;;;;;;1.30;0.80;;;;;;;12.02;80.85;97847.95;107588;1256;73188;-37
2023/11/05 08:24:08;;;;;;;1.60;1.00;;;;;;;12.11;80.02;97855.76;107656;1253;67565;-37
2023/11/05 08:26:36;;;;;;;1.30;0.80;;;;;;;12.15;79.56;97863.39;107590;1253;71626;-36
2023/11/05 08:29:03;;;;;;;2.10;0.70;;;;;;;12.17;79.21;97864.85;107627;1257;60104;-37
2023/11/05 08:31:33;;;;;;;0.90;0.70;;;;;;;12.18;78.54;97862.20;107666;1253;60053;-37
2023/11/05 08:34:02;;;;;;;5.00;1.00;;;;;;;12.24;77.88;97858.16;107628;1253;73046;-37
2023/11/05 08:36:30;;;;;;;1.40;0.60;;;;;;;12.32;77.58;97857.84;107571;1256;67599;-37
2023/11/05 08:38:58;;;;;;;1.90;1.00;;;;;;;12.39;78.03;97860.08;107561;1253;71536;-37
2023/11/05 08:41:25;;;;;;;3.00;1.80;;;;;;;12.47;77.74;97854.45;107680;1252;59710;-36
2023/11/05 08:43:53;;;;;;;3.40;1.60;;;;;;;12.53;76.06;97850.97;107554;1251;59224;-37
2023/11/05 08:46:20;;;;;;;6.00;2.90;;;;;;;12.59;74.88;97849.41;107575;1256;72196;-37
2023/11/05 08:48:49;;;;;;;5.30;2.70;;;;;;;12.68;74.29;97844.86;107630;1257;67188;-37
2023/11/05 08:51:30;;;;;;;2.60;1.90;;;;;;;12.77;73.93;97844.83;107630;1253;72758;-37
2023/11/05 08:53:58;;;;;;;4.90;3.00;;;;;;;12.82;73.94;97849.64;107636;1252;60296;-36
2023/11/05 08:56:26;;;;;;;6.20;4.40;;;;;;;12.89;73.35;97847.13;107641;1257;61036;-36
2023/11/05 08:58:55;;;;;;;4.30;2.30;;;;;;;12.95;73.36;97847.89;107621;1253;73826;-37
2023/11/05 09:01:22;;;;;;;1.90;0.90;;;;;;;13.05;72.31;97842.39;107687;1253;67914;-37
2023/11/05 09:03:51;;;;;;;0.80;0.70;;;;;;;13.14;71.49;97845.53;107605;1253;72680;-37
2023/11/05 09:06:20;;;;;;;1.20;0.70;;;;;;;13.19;71.40;97846.23;107635;1252;60319;-36
2023/11/05 09:08:48;;;;;;;2.20;1.40;;;;;;;13.24;71.20;97842.51;107669;1252;60518;-36
2023/11/05 09:11:16;;;;;;;2.60;1.40;;;;;;;13.31;71.43;97838.41;107625;1256;73893;-37
2023/11/05 09:13:45;;;;;;;3.40;1.10;;;;;;;13.38;71.50;97839.23;107598;1253;67572;-37
2023/11/05 09:16:13;;;;;;;1.50;0.90;;;;;;;13.51;70.33;97843.14;107651;1253;71521;-37
2023/11/05 09:18:41;;;;;;;1.80;0.90;;;;;;;13.63;69.41;97844.41;107606;1253;60211;-36
2023/11/05 09:21:08;;;;;;;2.20;0.80;;;;;;;13.67;68.84;97837.87;107608;1252;60285;-37
2023/11/05 09:23:36;;;;;;;1.20;0.70;;;;;;;13.72;69.09;97829.86;107597;1253;72675;-37
2023/11/05 09:26:04;;;;;;;0.80;0.60;;;;;;;13.80;68.43;97829.55;107647;1253;68087;-37
2023/11/05 09:28:31;;;;;;;2.00;0.90;;;;;;;13.84;67.03;97829.39;107629;1253;71540;-37
2023/11/05 09:30:59;;;;;;;3.50;0.80;;;;;;;13.87;67.50;97826.13;107593;1253;60326;-37
2023/11/05 09:33:27;;;;;;;3.30;0.80;;;;;;;13.92;66.63;97823.48;107604;1253;61043;-37
2023/11/05 09:35:55;;;;;;;0.80;0.70;;;;;;;14.00;66.23;97820.98;107616;1251;72981;-37
2023/11/05 09:38:23;;;;;;;1.70;0.90;;;;;;;14.09;66.86;97825.02;107603;1253;67598;-37
2023/11/05 09:40:51;;;;;;;1.10;0.70;;;;;;;14.18;67.09;97822.02;107635;1253;72659;-37
2023/11/05 09:43:18;;;;;;;1.60;0.70;;;;;;;14.27;67.17;97817.09;107659;1253;60422;-37
2023/11/05 09:45:49;;;;;;;1.20;0.60;;;;;;;14.42;66.84;97812.14;107622;1253;60390;-37
2023/11/05 09:48:17;;;;;;;1.50;0.80;;;;;;;14.57;65.88;97799.02;107512;1253;72615;-36
2023/11/05 09:50:45;;;;;;;1.20;0.50;;;;;;;14.69;65.01;97787.46;107564;1253;67570;-36
2023/11/05 09:53:17;;;;;;;2.10;0.70;;;;;;;14.80;65.02;97774.81;107577;1253;71412;-36
2023/11/05 09:55:45;;;;;;;1.70;0.70;;;;;;;14.96;63.84;97775.38;107524;1254;60264;-36
2023/11/05 09:58:13;;;;;;;1.30;0.90;;;;;;;15.02;64.10;97778.65;107652;1253;60723;-36
2023/11/05 10:00:41;;;;;;;1.40;0.90;;;;;;;15.12;63.59;97785.02;107648;1253;73907;-37
2023/11/05 10:03:10;;;;;;;1.30;0.80;;;;;;;15.20;63.12;97792.70;107644;1253;67878;-36
2023/11/05 10:05:39;;;;;;;2.10;0.80;;;;;;;15.29;63.20;97793.75;107713;1253;72667;-36
2023/11/05 10:08:07;;;;;;;2.10;0.80;;;;;;;15.40;62.40;97786.83;107642;1253;60247;-37
2023/11/05 10:10:37;;;;;;;1.80;1.10;;;;;;;15.47;60.59;97783.77;107641;1254;62218;-37
2023/11/05 10:13:05;;;;;;;1.10;0.90;;;;;;;15.52;61.45;97784.60;107739;1257;75985;-37
2023/11/05 10:15:34;;;;;;;1.10;0.70;;;;;;;15.51;60.58;97792.11;107589;1253;68335;-37
2023/11/05 10:18:02;;;;;;;2.60;1.00;;;;;;;15.39;60.39;97788.59;107784;1253;74741;-36
2023/11/05 10:20:30;;;;;;;4.50;2.20;;;;;;;15.32;61.27;97785.34;107603;1253;62218;-37
2023/11/05 10:23:05;;;;;;;5.60;2.70;;;;;;;15.36;61.69;97783.20;107579;1253;60292;-36
2023/11/05 10:25:34;;;;;;;3.70;1.90;;;;;;;15.47;61.19;97781.73;107594;1253;75998;-36
2023/11/05 10:28:03;;;;;;;1.70;0.90;;;;;;;15.62;60.76;97785.19;107587;1253;66377;-36
2023/11/05 10:30:32;;;;;;;3.10;1.10;;;;;;;15.75;60.69;97788.05;107643;1252;73086;-37
2023/11/05 10:33:00;;;;;;;2.40;1.60;;;;;;;15.92;60.50;97788.60;107636;1253;62374;-36
2023/11/05 10:35:32;;;;;;;1.90;1.50;;;;;;;16.03;59.50;97793.44;107645;1253;62230;-37
2023/11/05 10:38:02;;;;;;;;;;;;;;;16.03;59.64;97793.03;107692;1256;73879;-37
2023/11/05 10:40:30;;;;;;;2.00;1.60;;;;;;;15.97;59.30;97784.94;107654;1253;67578;-37
2023/11/05 10:42:58;;;;;;;3.30;2.80;;;;;;;15.94;59.97;97780.88;107631;1253;72794;-36
2023/11/05 10:45:25;;;;;;;2.70;1.50;;;;;;;15.98;59.05;97780.46;107568;1253;60484;-37
2023/11/05 10:47:53;;;;;;;8.50;4.60;;;;;;;15.95;58.75;97775.08;107656;1252;59679;-36
2023/11/05 10:50:25;;;;;;;1.90;1.70;;;;;;;15.89;59.03;97773.84;107621;1257;72564;-36
2023/11/05 10:52:54;;;;;;;3.90;1.20;;;;;;;15.82;59.17;97767.63;107621;1253;67893;-37
2023/11/05 10:55:32;;;;;;;3.50;2.50;;;;;;;15.76;59.04;97776.06;107545;1253;72766;-36
2023/11/05 10:58:02;;;;;;;5.80;1.30;;;;;;;15.67;59.34;97771.33;107533;1252;60271;-37
2023/11/05 11:00:57;;;;;;;3.10;1.20;;;;;;;15.68;59.72;97767.70;107576;1254;60486;-36
2023/11/05 11:03:25;;;;;;;2.90;1.00;;;;;;;15.79;59.00;97766.79;107658;1253;73877;-37
2023/11/05 11:05:56;;;;;;;1.50;0.80;;;;;;;15.85;59.14;97771.76;107658;1253;67596;-37
2023/11/05 11:08:26;;;;;;;1.30;0.80;;;;;;;15.89;58.79;97772.50;107647;1253;72753;-37
2023/11/05 11:11:08;;;;;;;1.40;0.80;;;;;;;15.88;58.36;97771.77;107604;1252;60227;-36
2023/11/05 11:13:38;;;;;;;1.20;0.90;;;;;;;15.79;58.18;97771.85;107594;1253;60391;-36
2023/11/05 11:16:08;;;;;;;1.50;0.80;;;;;;;15.64;58.18;97780.21;107626;1251;73827;-37
2023/11/05 11:18:36;;;;;;;;;;;;;;;15.49;58.92;97776.70;107627;1253;67585;-37
2023/11/05 11:21:07;;;;;;;2.70;0.90;;;;;;;15.44;59.58;97780.80;107559;1253;71499;-37
2023/11/05 11:23:35;;;;;;;1.40;0.90;;;;;;;15.55;60.07;97774.36;107508;1252;60501;-37
2023/11/05 11:26:05;;;;;;;1.90;1.00;;;;;;;15.77;59.62;97770.27;107672;1251;60149;-37
2023/11/05 11:28:33;;;;;;;1.20;0.90;;;;;;;15.97;58.98;97761.13;107637;1251;73831;-36
2023/11/05 11:31:01;;;;;;;1.30;1.00;;;;;;;16.14;58.99;97753.20;107634;1252;67599;-37
2023/11/05 11:33:32;;;;;;;2.20;1.00;;;;;;;16.26;58.73;97747.80;107455;1253;72782;-37
2023/11/05 11:36:01;;;;;;;1.60;0.90;;;;;;;16.30;58.54;97748.38;107598;1253;60425;-37